Marshall Army Air Field Fort Riley(Junction City) US
ICAO: KFRI
IATA: FRI
Category: Medium
Scheduled Services: No

Elevation: 1065 ft
TransAlt. 18000 ft.

Airport Communications:
VFR ADVSY SVC:126.2
KANSAS CITY CNTR:127.35
ASOS:118.375
CTAF:126.2
RANGE CON:40.8
OPS:40.55

KFRI Zoom In..

If you have problems with the map follow the link
https://www.worldairports.se/pages/airport.php?
ICAO=KFRI

Runways:

(A) RW 04 length 4503 ft width 100 ft
---- / hdg 44

(B) RW 22 length 4503 ft width 100 ft
---- / hdg 224

Location; KFRI
Day. 25 / Time. 06.56 Zulu
* Altimeter: 30.10
* Temperature: -06° c. -21.2°f.
* Wind from: 220° Speed 03 kn.
Dewpoint: -07° c.
Visibility: 8 Statute Miles.
Clouds: Clear (automated report).

KFRI 250656Z AUTO 22003KT 8SM CLR M06/M07 A3010 RMK AO2 SLP204 T10571072


Wind From 220°
Speed 03 kn.

 
 
jpsmedia worldairports.se 2020   terms of use